Time;durP1;ratioP1;P1;durP2;ratioP2;P2;SDS_P1;SDS_P2;PMS_P1;PMS_P2;Temp;Humidity;BMP_temperature;BMP_pressure;BME280_temperature;BME280_humidity;BME280_pressure;Samples;Min_cycle;Max_cycle;Signal;HPM_P1;HPM_P2
2022/08/13 00:00:31;;;;;;;0.50;0.50;;;17.80;99.90;;;;;;5051859;28;20342;-78
2022/08/13 00:02:58;;;;;;;1.48;0.60;;;17.80;99.90;;;;;;5051621;28;20189;-78
2022/08/13 00:05:24;;;;;;;0.38;0.38;;;17.70;99.90;;;;;;5053644;28;20185;-78
2022/08/13 00:07:50;;;;;;;0.30;0.30;;;17.70;99.90;;;;;;5051395;28;20194;-78
2022/08/13 00:10:36;;;;;;;0.20;0.20;;;17.70;99.90;;;;;;5052130;28;20229;-77
2022/08/13 00:13:04;;;;;;;0.55;0.55;;;17.70;99.90;;;;;;5032387;28;20206;-78
2022/08/13 00:15:32;;;;;;;0.50;0.50;;;17.70;99.90;;;;;;5048419;28;20202;-78
2022/08/13 00:18:07;;;;;;;0.30;0.30;;;17.70;99.90;;;;;;5048623;28;20206;-78
2022/08/13 00:20:45;;;;;;;0.82;0.60;;;17.60;99.90;;;;;;5063819;28;20212;-78
2022/08/13 00:23:15;;;;;;;0.30;0.30;;;17.60;99.90;;;;;;5033187;28;20186;-78
2022/08/13 00:25:45;;;;;;;0.40;0.40;;;17.60;99.90;;;;;;5035933;28;20661;-78
2022/08/13 00:28:14;;;;;;;0.50;0.50;;;17.50;99.90;;;;;;5071686;28;20200;-78
2022/08/13 00:30:40;;;;;;;2.60;1.27;;;17.50;99.90;;;;;;5072996;28;20682;-78
2022/08/13 00:33:10;;;;;;;0.40;0.40;;;17.50;99.90;;;;;;5069969;28;20201;-78
2022/08/13 00:35:37;;;;;;;0.73;0.63;;;17.50;99.90;;;;;;5051601;28;20571;-77
2022/08/13 00:38:05;;;;;;;0.40;0.40;;;17.50;99.90;;;;;;5068339;28;20235;-77
2022/08/13 00:40:31;;;;;;;0.30;0.30;;;17.40;99.90;;;;;;5052797;28;20212;-78
2022/08/13 00:43:04;;;;;;;0.50;0.50;;;17.40;99.90;;;;;;5068416;28;20665;-78
2022/08/13 00:45:32;;;;;;;0.38;0.38;;;17.40;99.90;;;;;;5051389;28;20193;-78
2022/08/13 00:50:42;;;;;;;0.30;0.30;;;17.30;99.90;;;;;;5052908;28;20201;-77
2022/08/13 00:53:17;;;;;;;0.40;0.40;;;17.30;99.90;;;;;;5052870;28;20202;-78
2022/08/13 00:55:48;;;;;;;0.30;0.30;;;17.30;99.90;;;;;;5068016;28;20201;-78
2022/08/13 00:58:16;;;;;;;0.32;0.32;;;17.20;99.90;;;;;;5052820;28;20201;-77
2022/08/13 01:00:46;;;;;;;0.32;0.32;;;17.20;99.90;;;;;;5050966;28;20205;-79
2022/08/13 01:03:12;;;;;;;0.75;0.50;;;17.20;99.90;;;;;;5052882;28;20677;-79
2022/08/13 01:05:41;;;;;;;0.40;0.40;;;17.20;99.90;;;;;;5052711;28;20719;-78
2022/08/13 01:08:08;;;;;;;0.30;0.30;;;17.20;99.90;;;;;;5052767;28;20310;-79
2022/08/13 01:10:35;;;;;;;0.32;0.32;;;17.20;99.90;;;;;;5051745;28;20194;-79
2022/08/13 01:13:03;;;;;;;0.38;0.38;;;17.10;99.90;;;;;;5051675;28;20607;-79
2022/08/13 01:15:31;;;;;;;0.20;0.20;;;17.10;99.90;;;;;;5048031;28;20198;-80
2022/08/13 01:17:58;;;;;;;0.30;0.30;;;17.00;99.90;;;;;;5032508;28;20276;-79
2022/08/13 01:20:27;;;;;;;0.50;0.40;;;17.00;99.90;;;;;;5036796;28;20578;-78
2022/08/13 01:22:55;;;;;;;0.47;0.47;;;17.00;99.90;;;;;;5045324;28;20201;-79
2022/08/13 01:25:25;;;;;;;0.30;0.30;;;16.90;99.90;;;;;;5056691;28;20239;-79
2022/08/13 01:27:52;;;;;;;0.30;0.30;;;16.90;99.90;;;;;;5055285;28;20243;-83
2022/08/13 01:30:20;;;;;;;0.30;0.30;;;16.90;99.90;;;;;;5055770;28;20198;-80
2022/08/13 01:32:47;;;;;;;0.20;0.20;;;16.90;99.90;;;;;;5056810;28;20609;-80
2022/08/13 01:35:19;;;;;;;0.40;0.40;;;16.90;99.90;;;;;;5055094;28;20532;-81
2022/08/13 01:37:51;;;;;;;0.30;0.30;;;16.90;99.90;;;;;;5055034;28;20229;-82
2022/08/13 01:40:17;;;;;;;0.82;0.60;;;16.90;99.90;;;;;;5055647;28;20189;-78
2022/08/13 01:42:45;;;;;;;0.52;0.47;;;16.90;99.90;;;;;;5056399;28;20710;-78
2022/08/13 01:45:13;;;;;;;0.20;0.20;;;16.90;99.90;;;;;;5056496;28;20189;-78
2022/08/13 01:50:30;;;;;;;0.30;0.30;;;16.80;99.90;;;;;;5056225;28;20259;-78
2022/08/13 01:53:01;;;;;;;0.60;0.60;;;16.80;99.90;;;;;;5054572;28;20205;-78
2022/08/13 01:55:39;;;;;;;0.52;0.50;;;16.70;99.90;;;;;;5054581;28;20211;-78
2022/08/13 01:58:28;;;;;;;0.40;0.40;;;16.70;99.90;;;;;;5054616;28;20208;-78
2022/08/13 02:00:58;;;;;;;0.47;0.47;;;16.70;99.90;;;;;;5055136;28;20255;-79
2022/08/13 02:03:24;;;;;;;0.40;0.40;;;16.70;99.90;;;;;;5054421;28;20197;-78
2022/08/13 02:05:51;;;;;;;0.75;0.75;;;16.70;99.90;;;;;;5054683;28;20205;-79
2022/08/13 02:08:22;;;;;;;3.30;1.30;;;16.70;99.90;;;;;;5054513;28;20198;-78
2022/08/13 02:10:50;;;;;;;0.50;0.50;;;16.70;99.90;;;;;;5055481;28;20269;-78
2022/08/13 02:13:22;;;;;;;0.60;0.50;;;16.70;99.90;;;;;;5055756;28;20198;-79
2022/08/13 02:15:49;;;;;;;0.57;0.57;;;16.70;99.90;;;;;;5055843;28;20194;-79
2022/08/13 02:18:18;;;;;;;0.30;0.30;;;16.70;99.90;;;;;;5054335;28;20232;-79
2022/08/13 02:20:50;;;;;;;0.50;0.50;;;16.70;99.90;;;;;;5055831;28;20652;-79
2022/08/13 02:23:20;;;;;;;0.43;0.43;;;16.60;99.90;;;;;;5056132;28;20343;-78
2022/08/13 02:25:48;;;;;;;0.35;0.35;;;16.60;99.90;;;;;;5053830;28;20200;-78
2022/08/13 02:28:15;;;;;;;0.45;0.45;;;16.60;99.90;;;;;;5056330;28;20181;-77
2022/08/13 02:30:43;;;;;;;0.30;0.30;;;16.50;99.90;;;;;;5053749;28;20233;-79
2022/08/13 02:33:09;;;;;;;0.70;0.70;;;16.50;99.90;;;;;;5071016;28;20219;-78
2022/08/13 02:35:36;;;;;;;0.63;0.63;;;16.50;99.90;;;;;;5053964;28;20287;-79
2022/08/13 02:38:03;;;;;;;0.45;0.45;;;16.50;99.90;;;;;;5055340;28;20664;-79
2022/08/13 02:43:13;;;;;;;0.75;0.50;;;16.50;99.90;;;;;;5055543;28;20199;-78
2022/08/13 02:45:39;;;;;;;0.60;0.60;;;16.50;99.90;;;;;;5055795;28;20568;-78
2022/08/13 02:48:06;;;;;;;0.50;0.50;;;16.50;99.90;;;;;;5054290;28;20573;-79
2022/08/13 02:50:33;;;;;;;0.60;0.60;;;16.50;99.90;;;;;;5055565;28;20672;-78
2022/08/13 02:53:00;;;;;;;0.20;0.20;;;16.50;99.90;;;;;;5055491;28;20213;-78
2022/08/13 02:55:30;;;;;;;0.30;0.30;;;16.50;99.90;;;;;;5055847;28;20632;-78
2022/08/13 02:57:55;;;;;;;0.30;0.30;;;16.50;99.90;;;;;;5054325;28;20206;-78
2022/08/13 03:00:21;;;;;;;0.40;0.40;;;16.50;99.90;;;;;;5052940;28;20271;-78
2022/08/13 03:02:48;;;;;;;0.45;0.45;;;16.50;99.90;;;;;;5051852;28;20250;-78
2022/08/13 03:05:16;;;;;;;0.88;0.80;;;16.50;99.90;;;;;;5054669;28;20307;-79
2022/08/13 03:07:44;;;;;;;0.40;0.40;;;16.40;99.90;;;;;;5049708;28;20653;-79
2022/08/13 03:10:12;;;;;;;0.43;0.40;;;16.40;99.90;;;;;;5033344;28;20205;-78
2022/08/13 03:12:41;;;;;;;0.50;0.50;;;16.40;99.90;;;;;;5051581;28;20819;-78
2022/08/13 03:15:10;;;;;;;0.43;0.43;;;16.40;99.90;;;;;;5049975;28;20273;-79
2022/08/13 03:17:37;;;;;;;0.30;0.30;;;16.40;99.90;;;;;;5033051;28;20199;-79
2022/08/13 03:20:06;;;;;;;1.40;0.63;;;16.40;99.90;;;;;;5032790;28;20260;-79
2022/08/13 03:22:31;;;;;;;0.50;0.50;;;16.40;99.90;;;;;;5066330;28;20214;-79
2022/08/13 03:24:57;;;;;;;0.40;0.40;;;16.40;99.90;;;;;;5034516;28;20194;-79
2022/08/13 03:27:25;;;;;;;0.52;0.40;;;16.40;99.90;;;;;;5051978;28;20225;-79
2022/08/13 03:29:53;;;;;;;0.30;0.30;;;16.40;99.90;;;;;;5054331;28;20190;-79
2022/08/13 03:32:19;;;;;;;0.57;0.57;;;16.40;99.90;;;;;;5052233;28;20209;-79
2022/08/13 03:34:47;;;;;;;0.68;0.68;;;16.40;99.90;;;;;;5054111;28;20262;-79
2022/08/13 03:37:12;;;;;;;0.50;0.50;;;16.40;99.90;;;;;;5054275;28;20202;-79
2022/08/13 03:39:38;;;;;;;0.30;0.30;;;16.40;99.90;;;;;;5054030;28;20205;-79
2022/08/13 03:42:04;;;;;;;0.30;0.30;;;16.40;99.90;;;;;;5069384;28;20669;-80
2022/08/13 03:44:30;;;;;;;0.32;0.32;;;16.40;99.90;;;;;;5054045;28;20200;-80
2022/08/13 03:46:56;;;;;;;0.52;0.52;;;16.40;99.90;;;;;;5052749;28;20198;-81
2022/08/13 03:49:24;;;;;;;0.40;0.40;;;16.40;99.90;;;;;;5053622;28;20288;-81
2022/08/13 03:51:50;;;;;;;0.28;0.28;;;16.50;99.90;;;;;;5052804;28;20201;-79
2022/08/13 03:54:16;;;;;;;0.30;0.30;;;16.40;99.90;;;;;;5053862;28;20197;-79
2022/08/13 03:56:41;;;;;;;0.63;0.60;;;16.50;99.90;;;;;;5053316;28;20201;-79
2022/08/13 03:59:12;;;;;;;0.43;0.40;;;16.50;99.90;;;;;;5053868;28;20202;-79
2022/08/13 04:01:38;;;;;;;0.40;0.40;;;16.60;99.90;;;;;;5053413;28;20259;-79
2022/08/13 04:04:06;;;;;;;0.40;0.40;;;16.60;99.90;;;;;;5053528;28;20197;-79
2022/08/13 04:06:32;;;;;;;0.60;0.60;;;16.70;99.90;;;;;;5053515;28;20276;-79
2022/08/13 04:09:02;;;;;;;0.63;0.47;;;16.70;99.90;;;;;;5053641;28;20225;-79
2022/08/13 04:11:28;;;;;;;0.63;0.63;;;16.80;99.90;;;;;;5053533;28;20193;-79
2022/08/13 04:13:54;;;;;;;0.60;0.60;;;16.80;99.90;;;;;;5052375;28;20605;-79
2022/08/13 04:16:22;;;;;;;0.50;0.50;;;16.80;99.90;;;;;;5052122;28;20254;-79
2022/08/13 04:18:50;;;;;;;0.50;0.50;;;16.90;99.90;;;;;;5053610;28;20239;-79
2022/08/13 04:21:19;;;;;;;0.57;0.57;;;17.00;99.90;;;;;;5052218;28;20558;-78
2022/08/13 04:23:46;;;;;;;0.30;0.30;;;17.10;99.90;;;;;;5052059;28;20411;-78
2022/08/13 04:26:15;;;;;;;0.50;0.50;;;17.10;99.90;;;;;;5053376;28;20280;-79
2022/08/13 04:28:41;;;;;;;0.65;0.60;;;17.20;99.90;;;;;;5052411;28;20202;-79
2022/08/13 04:31:10;;;;;;;0.50;0.50;;;17.30;99.90;;;;;;5053454;28;20189;-79
2022/08/13 04:33:36;;;;;;;0.40;0.40;;;17.40;99.90;;;;;;5046662;28;20527;-79
2022/08/13 04:36:04;;;;;;;0.50;0.50;;;17.50;99.90;;;;;;5048138;28;20205;-79
2022/08/13 04:38:30;;;;;;;0.68;0.50;;;17.50;99.90;;;;;;5033536;28;20570;-80
2022/08/13 04:40:56;;;;;;;0.50;0.50;;;17.60;99.90;;;;;;5048675;28;20224;-79
2022/08/13 04:43:22;;;;;;;0.40;0.40;;;17.70;99.90;;;;;;5048626;28;20236;-79
2022/08/13 04:45:48;;;;;;;0.40;0.40;;;17.80;99.90;;;;;;5062628;28;20686;-79
2022/08/13 04:48:15;;;;;;;0.35;0.35;;;17.90;99.90;;;;;;5051826;28;20233;-80
2022/08/13 04:50:44;;;;;;;0.63;0.63;;;18.00;99.90;;;;;;5052372;28;20201;-79
2022/08/13 04:53:27;;;;;;;0.50;0.50;;;18.00;99.90;;;;;;5054094;28;20741;-79
2022/08/13 04:55:54;;;;;;;0.50;0.50;;;18.10;99.90;;;;;;5056089;28;20743;-79
2022/08/13 04:58:20;;;;;;;0.55;0.50;;;18.20;99.90;;;;;;5057005;28;20267;-79
2022/08/13 05:00:46;;;;;;;0.63;0.60;;;18.30;99.90;;;;;;5056875;28;20679;-78
2022/08/13 05:03:21;;;;;;;0.55;0.55;;;18.30;99.90;;;;;;5055767;28;20570;-78
2022/08/13 05:05:49;;;;;;;0.43;0.43;;;18.40;99.90;;;;;;5056096;28;20533;-79
2022/08/13 05:08:15;;;;;;;0.40;0.40;;;18.40;99.90;;;;;;5056768;28;20555;-78
2022/08/13 05:10:42;;;;;;;3.30;1.08;;;18.50;99.90;;;;;;5055568;28;20680;-78
2022/08/13 05:13:38;;;;;;;0.38;0.38;;;18.60;99.90;;;;;;5055551;28;20204;-78
2022/08/13 05:16:07;;;;;;;0.45;0.45;;;18.70;99.90;;;;;;5050959;28;20205;-78
2022/08/13 05:18:36;;;;;;;0.40;0.40;;;18.70;99.90;;;;;;5056527;28;20536;-78
2022/08/13 05:21:08;;;;;;;0.73;0.55;;;18.80;99.90;;;;;;5056466;28;20615;-79
2022/08/13 05:23:37;;;;;;;0.63;0.40;;;18.90;99.90;;;;;;5055259;28;20201;-79
2022/08/13 05:26:03;;;;;;;0.63;0.40;;;19.00;99.90;;;;;;5056356;28;20235;-79
2022/08/13 05:28:30;;;;;;;0.50;0.50;;;19.00;99.90;;;;;;5055897;28;20600;-79
2022/08/13 05:30:56;;;;;;;0.60;0.50;;;19.10;99.90;;;;;;5055168;28;20209;-79
2022/08/13 05:33:25;;;;;;;0.50;0.50;;;19.20;99.90;;;;;;5051703;28;20285;-79
2022/08/13 05:35:55;;;;;;;0.50;0.50;;;19.40;99.90;;;;;;5040558;28;20201;-79
2022/08/13 05:38:22;;;;;;;0.57;0.57;;;19.40;99.90;;;;;;5056346;28;20606;-79
2022/08/13 05:40:53;;;;;;;0.40;0.40;;;19.50;99.90;;;;;;5055896;28;20205;-80
2022/08/13 05:43:21;;;;;;;0.50;0.50;;;19.60;99.90;;;;;;5056066;28;20221;-79
2022/08/13 05:45:57;;;;;;;0.68;0.60;;;19.70;99.90;;;;;;5056144;28;20564;-79
2022/08/13 05:48:27;;;;;;;0.43;0.43;;;19.80;99.90;;;;;;5054403;28;20232;-79
2022/08/13 05:51:00;;;;;;;0.35;0.32;;;19.90;99.90;;;;;;5054837;28;20205;-79
2022/08/13 05:53:28;;;;;;;1.45;0.68;;;20.00;99.90;;;;;;5054678;28;20205;-79
2022/08/13 05:55:54;;;;;;;0.90;0.50;;;20.10;99.90;;;;;;5056108;28;20671;-79
2022/08/13 05:58:21;;;;;;;0.40;0.40;;;20.10;99.90;;;;;;5055884;28;20190;-79
2022/08/13 06:03:32;;;;;;;0.75;0.68;;;20.20;99.90;;;;;;5040995;28;20247;-79
2022/08/13 06:06:00;;;;;;;0.40;0.40;;;20.30;99.90;;;;;;5054485;28;20189;-79
2022/08/13 06:08:29;;;;;;;0.77;0.52;;;20.50;99.90;;;;;;5054265;28;20205;-78
2022/08/13 06:11:00;;;;;;;0.70;0.70;;;20.50;99.90;;;;;;5054790;28;20204;-79
2022/08/13 06:13:28;;;;;;;0.35;0.35;;;20.60;99.90;;;;;;5054201;28;20300;-78
2022/08/13 06:15:58;;;;;;;0.50;0.50;;;20.80;99.90;;;;;;5054239;28;20328;-78
2022/08/13 06:18:29;;;;;;;0.47;0.47;;;20.90;99.90;;;;;;5053784;28;20225;-79
2022/08/13 06:20:56;;;;;;;0.43;0.38;;;20.80;99.90;;;;;;5053776;28;20307;-79
2022/08/13 06:23:24;;;;;;;0.50;0.50;;;20.90;99.90;;;;;;5055307;28;20204;-79
2022/08/13 06:25:51;;;;;;;0.95;0.65;;;21.10;99.90;;;;;;5054034;28;20267;-79
2022/08/13 06:28:22;;;;;;;0.40;0.40;;;21.10;99.90;;;;;;5055175;28;20208;-78
2022/08/13 06:30:50;;;;;;;0.40;0.40;;;21.20;99.90;;;;;;5055537;28;20189;-79
2022/08/13 06:33:20;;;;;;;0.35;0.35;;;21.30;99.90;;;;;;5053948;28;20194;-79
2022/08/13 06:35:49;;;;;;;5.07;0.98;;;21.20;99.90;;;;;;5054508;28;20532;-77
2022/08/13 06:38:17;;;;;;;0.65;0.57;;;21.20;99.90;;;;;;5055070;28;20189;-80
2022/08/13 06:40:45;;;;;;;0.60;0.60;;;21.40;99.90;;;;;;5055072;28;20712;-77
2022/08/13 06:43:14;;;;;;;0.43;0.43;;;21.60;99.90;;;;;;5054351;28;20228;-78
2022/08/13 06:45:42;;;;;;;0.90;0.90;;;21.80;99.90;;;;;;5053365;28;20204;-78
2022/08/13 06:48:09;;;;;;;3.58;1.40;;;21.80;99.90;;;;;;5054804;28;20631;-77
2022/08/13 06:50:37;;;;;;;1.17;0.70;;;21.80;99.90;;;;;;5055003;28;20200;-77
2022/08/13 06:53:08;;;;;;;0.75;0.75;;;21.90;99.90;;;;;;5055017;28;20185;-78
2022/08/13 06:55:40;;;;;;;0.80;0.47;;;21.80;99.90;;;;;;5053260;28;20251;-78
2022/08/13 06:58:09;;;;;;;0.52;0.50;;;21.90;99.90;;;;;;5053561;28;20213;-78
2022/08/13 07:00:38;;;;;;;0.45;0.45;;;22.10;99.90;;;;;;5049974;28;20210;-79
2022/08/13 07:03:07;;;;;;;0.57;0.57;;;22.10;99.90;;;;;;5034402;28;20186;-79
2022/08/13 07:05:38;;;;;;;0.93;0.50;;;22.10;99.90;;;;;;5034272;28;20528;-78
2022/08/13 07:08:07;;;;;;;0.57;0.52;;;22.20;99.90;;;;;;5033398;28;20544;-78
2022/08/13 07:10:34;;;;;;;0.50;0.50;;;22.30;99.90;;;;;;5033445;28;20247;-80
2022/08/13 07:13:02;;;;;;;0.55;0.40;;;22.50;99.90;;;;;;5034953;28;20221;-77
2022/08/13 07:15:29;;;;;;;0.50;0.50;;;22.50;99.90;;;;;;5033421;28;20605;-78
2022/08/13 07:17:56;;;;;;;0.93;0.52;;;22.50;99.90;;;;;;5034576;28;20190;-78
2022/08/13 07:20:23;;;;;;;0.30;0.30;;;22.60;99.90;;;;;;5049756;28;20264;-79
2022/08/13 07:22:49;;;;;;;0.28;0.28;;;22.70;99.90;;;;;;5033222;28;20202;-79
2022/08/13 07:25:16;;;;;;;0.30;0.30;;;22.80;99.90;;;;;;5034663;28;20261;-79
2022/08/13 07:27:42;;;;;;;2.65;0.73;;;22.90;99.90;;;;;;5034326;28;20607;-79
2022/08/13 07:30:08;;;;;;;0.40;0.40;;;22.80;99.90;;;;;;5033048;28;20190;-78
2022/08/13 07:32:38;;;;;;;0.30;0.30;;;22.60;99.90;;;;;;5032810;28;20296;-79
2022/08/13 07:35:04;;;;;;;0.30;0.30;;;22.70;99.90;;;;;;5052286;28;20711;-79
2022/08/13 07:37:30;;;;;;;0.38;0.38;;;22.90;99.90;;;;;;5053863;28;20236;-78
2022/08/13 07:39:59;;;;;;;0.85;0.40;;;23.00;99.90;;;;;;5054154;28;20229;-79
2022/08/13 07:42:27;;;;;;;0.20;0.20;;;23.10;99.90;;;;;;5053257;28;20231;-78
2022/08/13 07:44:53;;;;;;;1.15;0.77;;;23.40;99.90;;;;;;5053602;28;20221;-78
2022/08/13 07:47:21;;;;;;;0.35;0.35;;;23.30;99.90;;;;;;5054123;28;20276;-78
2022/08/13 07:49:48;;;;;;;0.40;0.40;;;23.30;99.90;;;;;;5053809;28;20296;-79
2022/08/13 07:52:14;;;;;;;0.40;0.40;;;23.40;99.90;;;;;;5052305;28;20209;-79
2022/08/13 07:54:43;;;;;;;0.65;0.47;;;23.60;99.90;;;;;;5052255;28;20232;-78
2022/08/13 07:57:09;;;;;;;1.70;0.65;;;23.70;99.90;;;;;;5053829;28;20202;-79
2022/08/13 07:59:36;;;;;;;0.25;0.25;;;23.90;99.90;;;;;;5053621;28;20194;-80
2022/08/13 08:02:06;;;;;;;0.30;0.30;;;24.10;99.90;;;;;;5052660;28;20608;-80
2022/08/13 08:04:34;;;;;;;0.20;0.20;;;24.30;99.90;;;;;;5053401;28;20284;-79
2022/08/13 08:07:01;;;;;;;0.50;0.50;;;24.50;99.90;;;;;;5052155;28;20198;-79
2022/08/13 08:09:31;;;;;;;0.20;0.20;;;24.30;99.90;;;;;;5052245;28;20702;-79
2022/08/13 08:14:44;;;;;;;0.30;0.30;;;24.50;99.90;;;;;;5053836;28;20267;-78
2022/08/13 08:17:11;;;;;;;0.22;0.22;;;24.60;99.90;;;;;;5052628;28;20224;-78
2022/08/13 08:19:41;;;;;;;0.40;0.40;;;24.50;99.90;;;;;;5053176;28;20225;-79
2022/08/13 08:22:11;;;;;;;0.35;0.35;;;24.50;99.90;;;;;;5053286;28;20238;-78
2022/08/13 08:24:37;;;;;;;0.40;0.40;;;24.80;99.90;;;;;;5053029;28;20284;-79
2022/08/13 08:27:06;;;;;;;2.05;1.05;;;25.10;99.90;;;;;;5051603;28;20200;-79
2022/08/13 08:29:33;;;;;;;0.35;0.35;;;25.20;99.90;;;;;;5050563;28;20190;-79
2022/08/13 08:32:00;;;;;;;0.60;0.50;;;25.30;99.90;;;;;;5052021;28;20661;-79
2022/08/13 08:34:27;;;;;;;1.65;0.98;;;25.50;99.90;;;;;;5052784;28;20594;-78
2022/08/13 08:36:55;;;;;;;0.68;0.68;;;25.50;99.90;;;;;;5052819;28;20652;-79
2022/08/13 08:44:56;;;;;;;1.35;0.57;;;25.40;99.90;;;;;;5053291;28;20243;-78
2022/08/13 08:47:28;;;;;;;2.13;0.52;;;25.40;99.90;;;;;;5052788;28;20272;-79
2022/08/13 08:49:57;;;;;;;3.70;0.30;;;25.70;99.90;;;;;;5052811;28;20275;-79
2022/08/13 08:55:13;;;;;;;0.30;0.30;;;26.60;99.90;;;;;;5053137;28;20209;-79
2022/08/13 08:57:44;;;;;;;1.05;0.52;;;26.60;99.90;;;;;;5051534;28;20243;-78
2022/08/13 09:00:14;;;;;;;0.50;0.30;;;26.60;99.90;;;;;;5051668;28;20576;-76
2022/08/13 09:02:40;;;;;;;0.43;0.38;;;26.20;99.90;;;;;;5051509;28;20224;-76
2022/08/13 09:05:13;;;;;;;0.40;0.40;;;26.20;99.90;;;;;;5052829;28;20710;-76
2022/08/13 09:07:41;;;;;;;3.70;0.65;;;26.40;99.90;;;;;;5051157;28;20201;-77
2022/08/13 09:10:09;;;;;;;1.50;0.55;;;26.80;99.90;;;;;;5052927;28;20259;-77
2022/08/13 09:12:40;;;;;;;0.40;0.40;;;26.90;99.90;;;;;;5052497;28;20201;-77
2022/08/13 09:15:07;;;;;;;0.30;0.30;;;27.00;99.90;;;;;;5052687;28;20292;-76
2022/08/13 09:17:33;;;;;;;0.57;0.55;;;27.20;99.90;;;;;;5052549;28;20193;-76
2022/08/13 09:20:00;;;;;;;0.77;0.70;;;27.50;99.90;;;;;;5051274;28;20200;-76
2022/08/13 09:22:25;;;;;;;0.85;0.50;;;27.80;99.90;;;;;;5052254;28;20212;-76
2022/08/13 09:24:53;;;;;;;0.47;0.47;;;27.90;99.90;;;;;;5052380;28;20193;-77
2022/08/13 09:27:19;;;;;;;0.20;0.20;;;28.00;99.90;;;;;;5052046;28;20197;-76
2022/08/13 09:29:50;;;;;;;0.65;0.65;;;28.30;99.90;;;;;;5052120;28;20217;-75
2022/08/13 09:32:16;;;;;;;0.80;0.50;;;28.30;99.90;;;;;;5052122;28;20702;-77
2022/08/13 09:34:44;;;;;;;0.30;0.30;;;28.40;99.90;;;;;;5052084;28;20209;-76
2022/08/13 09:37:12;;;;;;;0.20;0.20;;;28.70;99.90;;;;;;5051243;28;20220;-76
2022/08/13 09:39:49;;;;;;;0.55;0.47;;;28.80;99.90;;;;;;5053929;28;20193;-77
2022/08/13 09:42:33;;;;;;;0.47;0.47;;;28.60;99.90;;;;;;5056109;28;20643;-77
2022/08/13 09:45:00;;;;;;;0.38;0.38;;;28.30;99.90;;;;;;5056137;28;20212;-77
2022/08/13 09:47:26;;;;;;;0.75;0.52;;;28.50;99.90;;;;;;5056083;28;20188;-76
2022/08/13 09:49:52;;;;;;;0.90;0.32;;;28.70;99.90;;;;;;5051126;28;20225;-78
2022/08/13 09:52:20;;;;;;;0.30;0.30;;;28.80;99.90;;;;;;5038235;28;20201;-78
2022/08/13 09:54:47;;;;;;;0.20;0.20;;;28.60;99.90;;;;;;5055813;28;20193;-77
2022/08/13 09:57:13;;;;;;;0.40;0.40;;;28.90;99.90;;;;;;5056101;28;20265;-76
2022/08/13 09:59:39;;;;;;;1.65;0.75;;;29.10;99.90;;;;;;5055616;28;20701;-76
2022/08/13 10:02:09;;;;;;;0.35;0.35;;;29.10;99.90;;;;;;5055646;28;20573;-77
2022/08/13 10:04:39;;;;;;;2.72;0.47;;;29.40;99.90;;;;;;5054422;28;20571;-76
2022/08/13 10:07:08;;;;;;;0.60;0.60;;;29.40;99.90;;;;;;5055484;28;20192;-76
2022/08/13 10:09:36;;;;;;;0.45;0.45;;;29.40;99.90;;;;;;5054278;28;20189;-76
2022/08/13 10:12:06;;;;;;;1.42;0.80;;;29.30;99.90;;;;;;5055408;28;20195;-77
2022/08/13 10:14:34;;;;;;;0.77;0.50;;;29.80;99.90;;;;;;5054345;28;20617;-78
2022/08/13 10:17:00;;;;;;;0.30;0.30;;;30.10;99.80;;;;;;5055237;28;20559;-77
2022/08/13 10:19:25;;;;;;;0.40;0.38;;;30.30;97.10;;;;;;5055299;28;20193;-78
2022/08/13 10:21:52;;;;;;;0.30;0.30;;;30.40;98.20;;;;;;5055889;28;20254;-76
2022/08/13 10:24:18;;;;;;;0.20;0.20;;;30.20;99.00;;;;;;5056675;28;20185;-77
2022/08/13 10:26:44;;;;;;;0.52;0.40;;;30.30;99.90;;;;;;5055935;28;20215;-78
2022/08/13 10:29:11;;;;;;;0.10;0.10;;;30.40;98.80;;;;;;5054889;28;20559;-77
2022/08/13 10:31:37;;;;;;;1.05;0.70;;;30.50;98.00;;;;;;5054938;28;20243;-77
2022/08/13 10:34:04;;;;;;;0.30;0.30;;;30.40;97.80;;;;;;5053739;28;20234;-77
2022/08/13 10:36:31;;;;;;;0.63;0.40;;;30.70;97.50;;;;;;5053627;28;20204;-77
2022/08/13 10:38:58;;;;;;;0.47;0.43;;;30.60;99.90;;;;;;5053546;28;20208;-77
2022/08/13 10:41:24;;;;;;;0.30;0.30;;;30.70;96.70;;;;;;5053200;28;20582;-77
2022/08/13 10:43:51;;;;;;;0.32;0.32;;;30.70;96.60;;;;;;5054792;28;20672;-77
2022/08/13 10:46:17;;;;;;;0.80;0.60;;;30.70;98.20;;;;;;5054092;28;20197;-77
2022/08/13 10:48:46;;;;;;;0.43;0.43;;;30.80;96.70;;;;;;5049643;28;20285;-77
2022/08/13 10:51:12;;;;;;;0.82;0.60;;;31.00;99.10;;;;;;5032603;28;20206;-78
2022/08/13 10:53:58;;;;;;;0.40;0.40;;;31.40;98.20;;;;;;5034291;28;20585;-77
2022/08/13 10:56:27;;;;;;;0.60;0.40;;;31.90;96.20;;;;;;5034928;28;20193;-77
2022/08/13 10:58:55;;;;;;;0.40;0.40;;;31.70;95.70;;;;;;5034693;28;20201;-80
2022/08/13 11:01:23;;;;;;;0.52;0.40;;;31.40;94.20;;;;;;5032767;28;20202;-77
2022/08/13 11:03:52;;;;;;;0.60;0.55;;;31.10;94.90;;;;;;5033592;28;20669;-81
2022/08/13 11:06:18;;;;;;;0.60;0.57;;;31.10;95.70;;;;;;5034860;28;20192;-80
2022/08/13 11:08:44;;;;;;;1.23;0.57;;;31.00;96.30;;;;;;5034543;28;20621;-80
2022/08/13 11:11:10;;;;;;;0.65;0.50;;;31.20;95.60;;;;;;5033395;28;20210;-80
2022/08/13 11:13:37;;;;;;;1.45;0.85;;;31.00;97.20;;;;;;5032998;28;20284;-79
2022/08/13 11:16:49;;;;;;;0.70;0.50;;;30.80;94.40;;;;;;5033094;28;20225;-79
2022/08/13 11:18:52;;;;;;;1.85;0.63;;;30.70;94.40;;;;;;5042604;28;20612;-80
2022/08/13 11:21:18;;;;;;;0.60;0.60;;;30.80;95.70;;;;;;5054337;28;20197;-80
2022/08/13 11:23:44;;;;;;;1.25;0.63;;;30.90;95.40;;;;;;5054177;28;20683;-80
2022/08/13 11:26:11;;;;;;;1.83;0.57;;;31.00;93.90;;;;;;5054094;28;20205;-79
2022/08/13 11:28:36;;;;;;;1.80;0.40;;;30.90;92.80;;;;;;5054207;28;20411;-80
2022/08/13 11:31:02;;;;;;;0.55;0.40;;;30.90;96.00;;;;;;5052846;28;20201;-79
2022/08/13 11:33:28;;;;;;;0.25;0.25;;;31.00;94.10;;;;;;5053607;28;20323;-79
2022/08/13 11:35:54;;;;;;;0.90;0.45;;;31.00;94.00;;;;;;5053127;28;20200;-79
2022/08/13 11:38:22;;;;;;;0.35;0.35;;;31.00;95.20;;;;;;5055961;28;20204;-80
2022/08/13 11:40:53;;;;;;;0.63;0.40;;;30.80;94.60;;;;;;5054930;28;20188;-81
2022/08/13 11:43:23;;;;;;;0.52;0.32;;;30.50;94.20;;;;;;5073386;28;20556;-80
2022/08/13 11:45:49;;;;;;;1.10;0.50;;;30.70;94.20;;;;;;5058318;28;20591;-81
2022/08/13 11:48:16;;;;;;;0.45;0.40;;;30.60;93.90;;;;;;5032586;28;20324;-81
2022/08/13 11:50:42;;;;;;;1.27;0.70;;;31.10;95.40;;;;;;5033854;28;20272;-81
2022/08/13 11:53:08;;;;;;;0.30;0.30;;;31.30;92.70;;;;;;5034320;28;20673;-81
2022/08/13 11:55:33;;;;;;;0.60;0.52;;;31.00;93.50;;;;;;5032602;28;20197;-83
2022/08/13 11:58:08;;;;;;;0.35;0.25;;;30.80;93.70;;;;;;5049154;28;20229;-82
2022/08/13 12:00:35;;;;;;;0.55;0.50;;;30.70;94.40;;;;;;5032287;28;20676;-80
2022/08/13 12:03:02;;;;;;;0.50;0.30;;;30.70;93.70;;;;;;5032155;28;20232;-81
2022/08/13 12:05:28;;;;;;;0.60;0.40;;;31.00;94.30;;;;;;5032096;28;20247;-81
2022/08/13 12:07:54;;;;;;;0.93;0.68;;;30.70;96.40;;;;;;5033694;28;20200;-80
2022/08/13 12:10:21;;;;;;;3.92;0.90;;;30.50;95.30;;;;;;5033355;28;20193;-81
2022/08/13 12:12:47;;;;;;;1.88;0.60;;;30.50;98.90;;;;;;5031993;28;20205;-78
2022/08/13 12:15:14;;;;;;;0.20;0.20;;;31.00;96.30;;;;;;5040865;28;20288;-78
2022/08/13 12:17:44;;;;;;;0.40;0.32;;;30.80;94.70;;;;;;5053045;28;20323;-79
2022/08/13 12:20:13;;;;;;;0.75;0.60;;;30.10;95.10;;;;;;5051667;28;20227;-78
2022/08/13 12:22:40;;;;;;;0.38;0.38;;;30.30;96.90;;;;;;5051270;28;20676;-78
2022/08/13 12:25:08;;;;;;;0.10;0.10;;;30.30;94.90;;;;;;5052934;28;20274;-79
2022/08/13 12:27:34;;;;;;;0.30;0.30;;;30.40;96.10;;;;;;5052743;28;20210;-79
2022/08/13 12:29:59;;;;;;;0.85;0.38;;;30.60;96.60;;;;;;5052757;28;20655;-79
2022/08/13 12:32:25;;;;;;;1.55;0.88;;;30.60;96.40;;;;;;5052689;28;20262;-79
2022/08/13 12:34:51;;;;;;;0.30;0.28;;;30.70;94.80;;;;;;5050376;28;20279;-79
2022/08/13 12:37:16;;;;;;;0.40;0.40;;;30.40;95.40;;;;;;5057428;28;20202;-80
2022/08/13 12:39:42;;;;;;;0.65;0.43;;;30.80;94.90;;;;;;5072543;28;20200;-77
2022/08/13 12:42:08;;;;;;;0.73;0.38;;;30.90;94.30;;;;;;5048471;28;20727;-77
2022/08/13 12:44:33;;;;;;;0.30;0.28;;;30.90;92.90;;;;;;5032112;28;20645;-77
2022/08/13 12:47:00;;;;;;;0.22;0.22;;;31.10;94.30;;;;;;5032587;28;20190;-79
2022/08/13 12:49:26;;;;;;;0.25;0.25;;;31.40;92.80;;;;;;5032409;28;20236;-77
2022/08/13 12:51:51;;;;;;;1.40;0.40;;;31.50;95.00;;;;;;5032608;28;20197;-77
2022/08/13 12:54:17;;;;;;;0.20;0.20;;;31.40;93.00;;;;;;5032397;28;20198;-78
2022/08/13 12:56:43;;;;;;;0.55;0.45;;;31.30;93.20;;;;;;5032771;28;20652;-79
2022/08/13 12:59:09;;;;;;;0.30;0.30;;;30.70;93.70;;;;;;5031224;28;20201;-79
2022/08/13 13:01:35;;;;;;;0.35;0.35;;;31.00;93.40;;;;;;5032142;28;20205;-78
2022/08/13 13:04:00;;;;;;;0.73;0.73;;;30.70;94.00;;;;;;5032575;28;20649;-79
2022/08/13 13:06:26;;;;;;;0.45;0.43;;;31.00;93.50;;;;;;5031050;28;20200;-79
2022/08/13 13:08:52;;;;;;;0.68;0.68;;;30.80;92.90;;;;;;5032547;28;20212;-78
2022/08/13 13:11:17;;;;;;;0.43;0.43;;;30.80;93.70;;;;;;5038658;28;20703;-77
2022/08/13 13:13:48;;;;;;;0.35;0.35;;;30.90;93.50;;;;;;5052338;28;20192;-79